sensor_id;sensor_type;location;lat;lon;timestamp;temperature;humidity
65692;DHT22;52411;52.716;6.696;2023-05-21T00:00:24;14.50;99.90
65692;DHT22;52411;52.716;6.696;2023-05-21T00:02:50;14.50;99.90
65692;DHT22;52411;52.716;6.696;2023-05-21T00:05:15;14.50;99.90
65692;DHT22;52411;52.716;6.696;2023-05-21T00:07:42;14.50;99.90
65692;DHT22;52411;52.716;6.696;2023-05-21T00:10:08;14.50;99.90
65692;DHT22;52411;52.716;6.696;2023-05-21T00:12:34;14.50;99.90
65692;DHT22;52411;52.716;6.696;2023-05-21T00:14:59;14.50;99.90
65692;DHT22;52411;52.716;6.696;2023-05-21T00:17:26;14.40;99.90
65692;DHT22;52411;52.716;6.696;2023-05-21T00:19:51;14.40;99.90
65692;DHT22;52411;52.716;6.696;2023-05-21T00:22:17;14.40;99.90
65692;DHT22;52411;52.716;6.696;2023-05-21T00:24:42;14.40;99.90
65692;DHT22;52411;52.716;6.696;2023-05-21T00:27:11;14.40;99.90
65692;DHT22;52411;52.716;6.696;2023-05-21T00:29:37;14.30;99.90
65692;DHT22;52411;52.716;6.696;2023-05-21T00:32:03;14.30;99.90
65692;DHT22;52411;52.716;6.696;2023-05-21T00:34:28;14.30;99.90
65692;DHT22;52411;52.716;6.696;2023-05-21T00:36:54;14.30;99.90
65692;DHT22;52411;52.716;6.696;2023-05-21T00:39:20;14.30;99.90
65692;DHT22;52411;52.716;6.696;2023-05-21T00:41:45;14.30;99.90
65692;DHT22;52411;52.716;6.696;2023-05-21T00:44:13;14.20;99.90
65692;DHT22;52411;52.716;6.696;2023-05-21T00:46:39;14.20;99.90
65692;DHT22;52411;52.716;6.696;2023-05-21T00:49:05;14.20;99.90
65692;DHT22;52411;52.716;6.696;2023-05-21T00:51:31;14.20;99.90
65692;DHT22;52411;52.716;6.696;2023-05-21T00:53:57;14.20;99.90
65692;DHT22;52411;52.716;6.696;2023-05-21T00:56:23;14.20;99.90
65692;DHT22;52411;52.716;6.696;2023-05-21T00:58:52;14.20;99.90
65692;DHT22;52411;52.716;6.696;2023-05-21T01:01:18;14.20;99.90
65692;DHT22;52411;52.716;6.696;2023-05-21T01:03:44;14.20;99.90
65692;DHT22;52411;52.716;6.696;2023-05-21T01:06:10;14.20;99.90
65692;DHT22;52411;52.716;6.696;2023-05-21T01:08:36;14.20;99.90
65692;DHT22;52411;52.716;6.696;2023-05-21T01:11:05;14.20;99.90
65692;DHT22;52411;52.716;6.696;2023-05-21T01:13:31;14.20;99.90
65692;DHT22;52411;52.716;6.696;2023-05-21T01:15:58;14.20;99.90
65692;DHT22;52411;52.716;6.696;2023-05-21T01:18:24;14.20;99.90
65692;DHT22;52411;52.716;6.696;2023-05-21T01:20:50;14.20;99.90
65692;DHT22;52411;52.716;6.696;2023-05-21T01:23:16;14.20;99.90
65692;DHT22;52411;52.716;6.696;2023-05-21T01:25:42;14.20;99.90
65692;DHT22;52411;52.716;6.696;2023-05-21T01:28:07;14.20;99.90
65692;DHT22;52411;52.716;6.696;2023-05-21T01:30:33;14.20;99.90
65692;DHT22;52411;52.716;6.696;2023-05-21T01:33:01;14.10;99.90
65692;DHT22;52411;52.716;6.696;2023-05-21T01:38:26;14.20;99.90
65692;DHT22;52411;52.716;6.696;2023-05-21T01:41:01;14.10;99.90
65692;DHT22;52411;52.716;6.696;2023-05-21T01:43:33;14.10;99.90
65692;DHT22;52411;52.716;6.696;2023-05-21T01:45:59;14.10;99.90
65692;DHT22;52411;52.716;6.696;2023-05-21T01:48:26;14.10;99.90
65692;DHT22;52411;52.716;6.696;2023-05-21T01:50:53;14.10;99.90
65692;DHT22;52411;52.716;6.696;2023-05-21T01:53:19;14.10;99.90
65692;DHT22;52411;52.716;6.696;2023-05-21T01:55:45;14.10;99.90
65692;DHT22;52411;52.716;6.696;2023-05-21T01:58:11;14.00;99.90
65692;DHT22;52411;52.716;6.696;2023-05-21T02:00:37;14.00;99.90
65692;DHT22;52411;52.716;6.696;2023-05-21T02:03:04;14.00;99.90
65692;DHT22;52411;52.716;6.696;2023-05-21T02:05:29;14.00;99.90
65692;DHT22;52411;52.716;6.696;2023-05-21T02:07:55;14.00;99.90
65692;DHT22;52411;52.716;6.696;2023-05-21T02:10:21;14.00;99.90
65692;DHT22;52411;52.716;6.696;2023-05-21T02:12:46;14.00;99.90
65692;DHT22;52411;52.716;6.696;2023-05-21T02:15:12;14.00;99.90
65692;DHT22;52411;52.716;6.696;2023-05-21T02:17:42;14.00;99.90
65692;DHT22;52411;52.716;6.696;2023-05-21T02:20:08;14.00;99.90
65692;DHT22;52411;52.716;6.696;2023-05-21T02:22:41;14.00;99.90
65692;DHT22;52411;52.716;6.696;2023-05-21T02:25:07;14.00;99.90
65692;DHT22;52411;52.716;6.696;2023-05-21T02:27:33;14.00;99.90
65692;DHT22;52411;52.716;6.696;2023-05-21T02:30:01;14.00;99.90
65692;DHT22;52411;52.716;6.696;2023-05-21T02:32:27;14.00;99.90
65692;DHT22;52411;52.716;6.696;2023-05-21T02:34:52;14.00;99.90
65692;DHT22;52411;52.716;6.696;2023-05-21T02:37:18;13.90;99.90
65692;DHT22;52411;52.716;6.696;2023-05-21T02:39:43;13.90;99.90
65692;DHT22;52411;52.716;6.696;2023-05-21T02:42:09;13.90;99.90
65692;DHT22;52411;52.716;6.696;2023-05-21T02:44:34;13.90;99.90
65692;DHT22;52411;52.716;6.696;2023-05-21T02:47:00;13.90;99.90
65692;DHT22;52411;52.716;6.696;2023-05-21T02:49:25;13.90;99.90
65692;DHT22;52411;52.716;6.696;2023-05-21T02:51:51;13.80;99.90
65692;DHT22;52411;52.716;6.696;2023-05-21T02:54:16;13.80;99.90
65692;DHT22;52411;52.716;6.696;2023-05-21T02:56:42;13.80;99.90
65692;DHT22;52411;52.716;6.696;2023-05-21T02:59:07;13.80;99.90
65692;DHT22;52411;52.716;6.696;2023-05-21T03:01:33;13.80;99.90
65692;DHT22;52411;52.716;6.696;2023-05-21T03:03:58;13.80;99.90
65692;DHT22;52411;52.716;6.696;2023-05-21T03:06:24;13.70;99.90
65692;DHT22;52411;52.716;6.696;2023-05-21T03:08:49;13.70;99.90
65692;DHT22;52411;52.716;6.696;2023-05-21T03:11:17;13.70;99.90
65692;DHT22;52411;52.716;6.696;2023-05-21T03:13:42;13.70;99.90
65692;DHT22;52411;52.716;6.696;2023-05-21T03:16:08;13.70;99.90
65692;DHT22;52411;52.716;6.696;2023-05-21T03:18:33;13.60;99.90
65692;DHT22;52411;52.716;6.696;2023-05-21T03:20:59;13.60;99.90
65692;DHT22;52411;52.716;6.696;2023-05-21T03:23:25;13.60;99.90
65692;DHT22;52411;52.716;6.696;2023-05-21T03:25:51;13.60;99.90
65692;DHT22;52411;52.716;6.696;2023-05-21T03:28:17;13.60;99.90
65692;DHT22;52411;52.716;6.696;2023-05-21T03:30:42;13.60;99.90
65692;DHT22;52411;52.716;6.696;2023-05-21T03:33:11;13.60;99.90
65692;DHT22;52411;52.716;6.696;2023-05-21T03:35:38;13.60;99.90
65692;DHT22;52411;52.716;6.696;2023-05-21T03:38:03;13.60;99.90
65692;DHT22;52411;52.716;6.696;2023-05-21T03:40:29;13.60;99.90
65692;DHT22;52411;52.716;6.696;2023-05-21T03:42:54;13.60;99.90
65692;DHT22;52411;52.716;6.696;2023-05-21T03:45:20;13.60;99.90
65692;DHT22;52411;52.716;6.696;2023-05-21T03:47:45;13.60;99.90
65692;DHT22;52411;52.716;6.696;2023-05-21T03:50:12;13.60;99.90
65692;DHT22;52411;52.716;6.696;2023-05-21T03:52:38;13.60;99.90
65692;DHT22;52411;52.716;6.696;2023-05-21T03:55:04;13.60;99.90
65692;DHT22;52411;52.716;6.696;2023-05-21T03:57:29;13.60;99.90
65692;DHT22;52411;52.716;6.696;2023-05-21T03:59:55;13.60;99.90
65692;DHT22;52411;52.716;6.696;2023-05-21T04:02:25;13.60;99.90
65692;DHT22;52411;52.716;6.696;2023-05-21T04:04:51;13.60;99.90
65692;DHT22;52411;52.716;6.696;2023-05-21T04:07:20;13.60;99.90
65692;DHT22;52411;52.716;6.696;2023-05-21T04:09:46;13.60;99.90
65692;DHT22;52411;52.716;6.696;2023-05-21T04:12:12;13.60;99.90
65692;DHT22;52411;52.716;6.696;2023-05-21T04:14:37;13.60;99.90
65692;DHT22;52411;52.716;6.696;2023-05-21T04:17:03;13.60;99.90
65692;DHT22;52411;52.716;6.696;2023-05-21T04:19:30;13.70;99.90
65692;DHT22;52411;52.716;6.696;2023-05-21T04:21:55;13.60;99.90
65692;DHT22;52411;52.716;6.696;2023-05-21T04:24:22;13.70;99.90
65692;DHT22;52411;52.716;6.696;2023-05-21T04:26:48;13.70;99.90
65692;DHT22;52411;52.716;6.696;2023-05-21T04:29:14;13.70;99.90
65692;DHT22;52411;52.716;6.696;2023-05-21T04:31:42;13.70;99.90
65692;DHT22;52411;52.716;6.696;2023-05-21T04:34:08;13.70;99.90
65692;DHT22;52411;52.716;6.696;2023-05-21T04:36:33;13.70;99.90
65692;DHT22;52411;52.716;6.696;2023-05-21T04:38:59;13.70;99.90
65692;DHT22;52411;52.716;6.696;2023-05-21T04:41:24;13.70;99.90
65692;DHT22;52411;52.716;6.696;2023-05-21T04:43:50;13.70;99.90
65692;DHT22;52411;52.716;6.696;2023-05-21T04:46:20;13.70;99.90
65692;DHT22;52411;52.716;6.696;2023-05-21T04:48:52;13.70;99.90
65692;DHT22;52411;52.716;6.696;2023-05-21T04:51:20;13.70;99.90
65692;DHT22;52411;52.716;6.696;2023-05-21T04:53:46;13.70;99.90
65692;DHT22;52411;52.716;6.696;2023-05-21T04:56:12;13.80;99.90
65692;DHT22;52411;52.716;6.696;2023-05-21T04:58:37;13.80;99.90
65692;DHT22;52411;52.716;6.696;2023-05-21T05:01:04;13.80;99.90
65692;DHT22;52411;52.716;6.696;2023-05-21T05:03:30;13.80;99.90
65692;DHT22;52411;52.716;6.696;2023-05-21T05:05:55;13.80;99.90
65692;DHT22;52411;52.716;6.696;2023-05-21T05:08:21;13.80;99.90
65692;DHT22;52411;52.716;6.696;2023-05-21T05:10:46;13.80;99.90
65692;DHT22;52411;52.716;6.696;2023-05-21T05:13:12;13.90;99.90
65692;DHT22;52411;52.716;6.696;2023-05-21T05:15:37;13.90;99.90
65692;DHT22;52411;52.716;6.696;2023-05-21T05:18:03;13.90;99.90
65692;DHT22;52411;52.716;6.696;2023-05-21T05:20:28;13.90;99.90
65692;DHT22;52411;52.716;6.696;2023-05-21T05:22:54;13.90;99.90
65692;DHT22;52411;52.716;6.696;2023-05-21T05:25:19;14.00;99.90
65692;DHT22;52411;52.716;6.696;2023-05-21T05:27:45;14.00;99.90
65692;DHT22;52411;52.716;6.696;2023-05-21T05:30:10;14.00;99.90
65692;DHT22;52411;52.716;6.696;2023-05-21T05:32:36;14.10;99.90
65692;DHT22;52411;52.716;6.696;2023-05-21T05:35:02;14.10;99.90
65692;DHT22;52411;52.716;6.696;2023-05-21T05:37:27;14.10;99.90
65692;DHT22;52411;52.716;6.696;2023-05-21T05:39:53;14.10;99.90
65692;DHT22;52411;52.716;6.696;2023-05-21T05:42:18;14.10;99.90
65692;DHT22;52411;52.716;6.696;2023-05-21T05:44:44;14.10;99.90
65692;DHT22;52411;52.716;6.696;2023-05-21T05:47:09;14.10;99.90
65692;DHT22;52411;52.716;6.696;2023-05-21T05:49:35;14.20;99.90
65692;DHT22;52411;52.716;6.696;2023-05-21T05:52:01;14.10;99.90
65692;DHT22;52411;52.716;6.696;2023-05-21T05:54:26;14.20;99.90
65692;DHT22;52411;52.716;6.696;2023-05-21T05:56:52;14.20;99.90
65692;DHT22;52411;52.716;6.696;2023-05-21T05:59:17;14.30;99.90
65692;DHT22;52411;52.716;6.696;2023-05-21T06:01:43;14.20;99.90
65692;DHT22;52411;52.716;6.696;2023-05-21T06:04:08;14.30;99.90
65692;DHT22;52411;52.716;6.696;2023-05-21T06:06:34;14.40;99.90
65692;DHT22;52411;52.716;6.696;2023-05-21T06:09:01;14.50;99.90
65692;DHT22;52411;52.716;6.696;2023-05-21T06:11:26;14.40;99.90
65692;DHT22;52411;52.716;6.696;2023-05-21T06:13:52;14.50;99.90
65692;DHT22;52411;52.716;6.696;2023-05-21T06:16:17;14.60;99.90
65692;DHT22;52411;52.716;6.696;2023-05-21T06:18:43;14.60;99.90
65692;DHT22;52411;52.716;6.696;2023-05-21T06:21:08;14.70;99.90
65692;DHT22;52411;52.716;6.696;2023-05-21T06:23:34;14.80;99.90
65692;DHT22;52411;52.716;6.696;2023-05-21T06:26:02;14.80;99.90
65692;DHT22;52411;52.716;6.696;2023-05-21T06:28:28;14.90;99.90
65692;DHT22;52411;52.716;6.696;2023-05-21T06:30:53;15.00;99.90
65692;DHT22;52411;52.716;6.696;2023-05-21T06:33:19;15.00;99.90
65692;DHT22;52411;52.716;6.696;2023-05-21T06:35:44;15.10;99.90
65692;DHT22;52411;52.716;6.696;2023-05-21T06:38:10;15.10;99.90
65692;DHT22;52411;52.716;6.696;2023-05-21T06:40:35;15.10;99.90
65692;DHT22;52411;52.716;6.696;2023-05-21T06:43:01;15.20;99.90
65692;DHT22;52411;52.716;6.696;2023-05-21T06:45:29;15.20;99.90
65692;DHT22;52411;52.716;6.696;2023-05-21T06:47:54;15.30;99.90
65692;DHT22;52411;52.716;6.696;2023-05-21T06:50:20;15.30;99.90
65692;DHT22;52411;52.716;6.696;2023-05-21T06:52:45;15.40;99.90
65692;DHT22;52411;52.716;6.696;2023-05-21T06:55:11;15.50;99.90
65692;DHT22;52411;52.716;6.696;2023-05-21T06:57:37;15.50;99.90
65692;DHT22;52411;52.716;6.696;2023-05-21T07:00:03;15.60;99.90
65692;DHT22;52411;52.716;6.696;2023-05-21T07:02:29;15.60;99.90
65692;DHT22;52411;52.716;6.696;2023-05-21T07:04:54;15.70;99.90
65692;DHT22;52411;52.716;6.696;2023-05-21T07:07:21;15.70;99.90
65692;DHT22;52411;52.716;6.696;2023-05-21T07:09:46;15.80;99.90
65692;DHT22;52411;52.716;6.696;2023-05-21T07:12:12;15.80;99.90
65692;DHT22;52411;52.716;6.696;2023-05-21T07:14:37;15.80;99.90
65692;DHT22;52411;52.716;6.696;2023-05-21T07:17:03;15.80;99.90
65692;DHT22;52411;52.716;6.696;2023-05-21T07:19:28;15.80;99.90
65692;DHT22;52411;52.716;6.696;2023-05-21T07:21:54;15.90;99.90
65692;DHT22;52411;52.716;6.696;2023-05-21T07:24:20;15.90;99.90
65692;DHT22;52411;52.716;6.696;2023-05-21T07:26:46;16.00;99.90
65692;DHT22;52411;52.716;6.696;2023-05-21T07:29:12;16.10;99.90
65692;DHT22;52411;52.716;6.696;2023-05-21T07:31:37;16.10;99.90
65692;DHT22;52411;52.716;6.696;2023-05-21T07:34:03;16.10;99.90
65692;DHT22;52411;52.716;6.696;2023-05-21T07:36:28;16.20;99.90
65692;DHT22;52411;52.716;6.696;2023-05-21T07:38:54;16.30;99.90
65692;DHT22;52411;52.716;6.696;2023-05-21T07:41:20;16.40;99.90
65692;DHT22;52411;52.716;6.696;2023-05-21T07:43:46;16.60;99.90
65692;DHT22;52411;52.716;6.696;2023-05-21T07:46:11;16.50;99.90
65692;DHT22;52411;52.716;6.696;2023-05-21T07:48:37;16.60;99.90
65692;DHT22;52411;52.716;6.696;2023-05-21T07:51:02;16.60;99.90
65692;DHT22;52411;52.716;6.696;2023-05-21T07:53:28;16.70;99.90
65692;DHT22;52411;52.716;6.696;2023-05-21T07:55:56;16.70;99.90
65692;DHT22;52411;52.716;6.696;2023-05-21T07:58:22;16.70;99.90
65692;DHT22;52411;52.716;6.696;2023-05-21T08:00:48;16.70;99.90
65692;DHT22;52411;52.716;6.696;2023-05-21T08:03:13;16.80;99.90
65692;DHT22;52411;52.716;6.696;2023-05-21T08:05:41;16.90;99.90
65692;DHT22;52411;52.716;6.696;2023-05-21T08:08:06;16.90;99.90
65692;DHT22;52411;52.716;6.696;2023-05-21T08:10:32;17.00;99.90
65692;DHT22;52411;52.716;6.696;2023-05-21T08:12:57;17.00;99.90
65692;DHT22;52411;52.716;6.696;2023-05-21T08:15:23;17.10;99.90
65692;DHT22;52411;52.716;6.696;2023-05-21T08:17:48;17.10;99.90
65692;DHT22;52411;52.716;6.696;2023-05-21T08:20:14;17.20;99.90
65692;DHT22;52411;52.716;6.696;2023-05-21T08:22:39;17.30;99.90
65692;DHT22;52411;52.716;6.696;2023-05-21T08:25:06;17.40;99.90
65692;DHT22;52411;52.716;6.696;2023-05-21T08:27:32;17.50;99.90
65692;DHT22;52411;52.716;6.696;2023-05-21T08:29:57;17.60;99.90
65692;DHT22;52411;52.716;6.696;2023-05-21T08:32:23;17.70;99.90
65692;DHT22;52411;52.716;6.696;2023-05-21T08:34:48;17.80;99.90
65692;DHT22;52411;52.716;6.696;2023-05-21T08:37:14;17.90;99.90
65692;DHT22;52411;52.716;6.696;2023-05-21T08:39:39;18.00;99.90
65692;DHT22;52411;52.716;6.696;2023-05-21T08:42:50;18.10;99.90
65692;DHT22;52411;52.716;6.696;2023-05-21T08:44:50;18.30;99.90
65692;DHT22;52411;52.716;6.696;2023-05-21T08:47:17;18.50;99.90
65692;DHT22;52411;52.716;6.696;2023-05-21T08:49:47;18.50;99.90
65692;DHT22;52411;52.716;6.696;2023-05-21T08:52:14;18.70;99.90
65692;DHT22;52411;52.716;6.696;2023-05-21T08:54:39;18.90;99.90
65692;DHT22;52411;52.716;6.696;2023-05-21T08:57:05;18.90;99.90
65692;DHT22;52411;52.716;6.696;2023-05-21T08:59:31;19.00;99.90
65692;DHT22;52411;52.716;6.696;2023-05-21T09:01:57;19.10;99.90
65692;DHT22;52411;52.716;6.696;2023-05-21T09:04:24;19.20;99.90
65692;DHT22;52411;52.716;6.696;2023-05-21T09:06:50;19.30;99.90
65692;DHT22;52411;52.716;6.696;2023-05-21T09:09:31;19.40;99.90
65692;DHT22;52411;52.716;6.696;2023-05-21T09:11:58;19.40;99.90
65692;DHT22;52411;52.716;6.696;2023-05-21T09:14:23;19.40;99.90
65692;DHT22;52411;52.716;6.696;2023-05-21T09:16:49;19.50;99.90
65692;DHT22;52411;52.716;6.696;2023-05-21T09:19:15;19.60;99.90
65692;DHT22;52411;52.716;6.696;2023-05-21T09:21:40;19.50;99.90
65692;DHT22;52411;52.716;6.696;2023-05-21T09:24:06;19.50;99.90
65692;DHT22;52411;52.716;6.696;2023-05-21T09:26:33;19.40;99.90
65692;DHT22;52411;52.716;6.696;2023-05-21T09:28:59;19.40;99.90
65692;DHT22;52411;52.716;6.696;2023-05-21T09:31:25;19.50;99.90
65692;DHT22;52411;52.716;6.696;2023-05-21T09:33:51;19.40;99.90
65692;DHT22;52411;52.716;6.696;2023-05-21T09:36:17;19.50;99.90
65692;DHT22;52411;52.716;6.696;2023-05-21T09:38:44;19.60;99.90
65692;DHT22;52411;52.716;6.696;2023-05-21T09:41:10;19.60;99.90
65692;DHT22;52411;52.716;6.696;2023-05-21T09:43:35;19.70;99.90
65692;DHT22;52411;52.716;6.696;2023-05-21T09:46:01;19.70;99.90
65692;DHT22;52411;52.716;6.696;2023-05-21T09:51:11;19.70;99.90
65692;DHT22;52411;52.716;6.696;2023-05-21T09:53:49;19.70;99.90
65692;DHT22;52411;52.716;6.696;2023-05-21T09:56:19;19.70;99.90
65692;DHT22;52411;52.716;6.696;2023-05-21T09:58:46;19.90;99.90
65692;DHT22;52411;52.716;6.696;2023-05-21T10:01:12;20.10;99.90
65692;DHT22;52411;52.716;6.696;2023-05-21T10:03:38;20.30;99.90
65692;DHT22;52411;52.716;6.696;2023-05-21T10:06:07;20.40;99.90
65692;DHT22;52411;52.716;6.696;2023-05-21T10:08:34;20.50;99.90
65692;DHT22;52411;52.716;6.696;2023-05-21T10:11:01;20.60;99.90
65692;DHT22;52411;52.716;6.696;2023-05-21T10:13:27;20.70;99.90
65692;DHT22;52411;52.716;6.696;2023-05-21T10:15:54;20.70;99.90
65692;DHT22;52411;52.716;6.696;2023-05-21T10:18:23;20.80;99.90
65692;DHT22;52411;52.716;6.696;2023-05-21T10:20:49;21.00;99.90
65692;DHT22;52411;52.716;6.696;2023-05-21T10:23:16;21.10;99.90
65692;DHT22;52411;52.716;6.696;2023-05-21T10:25:41;21.10;99.90
65692;DHT22;52411;52.716;6.696;2023-05-21T10:28:07;21.20;99.90
65692;DHT22;52411;52.716;6.696;2023-05-21T10:30:33;21.20;99.90
65692;DHT22;52411;52.716;6.696;2023-05-21T10:32:58;21.10;99.90
65692;DHT22;52411;52.716;6.696;2023-05-21T10:35:26;20.90;99.90
65692;DHT22;52411;52.716;6.696;2023-05-21T10:37:51;20.90;99.90
65692;DHT22;52411;52.716;6.696;2023-05-21T10:40:17;20.90;99.90
65692;DHT22;52411;52.716;6.696;2023-05-21T11:00:39;21.50;99.90
65692;DHT22;52411;52.716;6.696;2023-05-21T11:03:05;21.60;99.90
65692;DHT22;52411;52.716;6.696;2023-05-21T11:05:37;21.40;99.90
65692;DHT22;52411;52.716;6.696;2023-05-21T11:08:10;21.20;99.90
65692;DHT22;52411;52.716;6.696;2023-05-21T11:10:42;21.20;99.90
65692;DHT22;52411;52.716;6.696;2023-05-21T11:13:12;21.30;99.90
65692;DHT22;52411;52.716;6.696;2023-05-21T11:18:21;21.50;99.90
65692;DHT22;52411;52.716;6.696;2023-05-21T11:20:49;21.70;99.90
65692;DHT22;52411;52.716;6.696;2023-05-21T11:23:15;21.70;99.90
65692;DHT22;52411;52.716;6.696;2023-05-21T11:25:41;21.90;99.90
65692;DHT22;52411;52.716;6.696;2023-05-21T11:28:06;22.10;99.90
65692;DHT22;52411;52.716;6.696;2023-05-21T11:30:35;22.20;99.90
65692;DHT22;52411;52.716;6.696;2023-05-21T11:35:37;22.20;99.90
65692;DHT22;52411;52.716;6.696;2023-05-21T11:38:02;22.20;99.90
65692;DHT22;52411;52.716;6.696;2023-05-21T11:40:28;22.40;99.90
65692;DHT22;52411;52.716;6.696;2023-05-21T11:42:55;22.50;99.90
65692;DHT22;52411;52.716;6.696;2023-05-21T11:45:21;22.50;99.90
65692;DHT22;52411;52.716;6.696;2023-05-21T11:47:47;22.40;99.90
65692;DHT22;52411;52.716;6.696;2023-05-21T11:50:13;22.50;99.90
65692;DHT22;52411;52.716;6.696;2023-05-21T11:52:40;22.60;99.90
65692;DHT22;52411;52.716;6.696;2023-05-21T11:55:08;22.60;99.90
65692;DHT22;52411;52.716;6.696;2023-05-21T11:57:33;22.60;99.90
65692;DHT22;52411;52.716;6.696;2023-05-21T12:00:00;22.80;99.90
65692;DHT22;52411;52.716;6.696;2023-05-21T12:02:26;22.70;99.90
65692;DHT22;52411;52.716;6.696;2023-05-21T12:04:55;22.70;99.90
65692;DHT22;52411;52.716;6.696;2023-05-21T12:07:25;22.80;99.90
65692;DHT22;52411;52.716;6.696;2023-05-21T12:09:52;22.90;99.90
65692;DHT22;52411;52.716;6.696;2023-05-21T12:12:19;23.00;99.90
65692;DHT22;52411;52.716;6.696;2023-05-21T12:14:46;22.90;99.90
65692;DHT22;52411;52.716;6.696;2023-05-21T12:17:14;22.80;99.90
65692;DHT22;52411;52.716;6.696;2023-05-21T12:19:40;22.90;99.90
65692;DHT22;52411;52.716;6.696;2023-05-21T12:22:06;23.00;99.90
65692;DHT22;52411;52.716;6.696;2023-05-21T12:24:32;23.10;99.90
65692;DHT22;52411;52.716;6.696;2023-05-21T12:26:58;23.20;99.90
65692;DHT22;52411;52.716;6.696;2023-05-21T12:29:47;23.40;99.90
65692;DHT22;52411;52.716;6.696;2023-05-21T12:32:14;23.40;99.90
65692;DHT22;52411;52.716;6.696;2023-05-21T12:34:41;23.50;99.90
65692;DHT22;52411;52.716;6.696;2023-05-21T12:37:11;23.50;99.90
65692;DHT22;52411;52.716;6.696;2023-05-21T12:39:37;23.60;99.90
65692;DHT22;52411;52.716;6.696;2023-05-21T12:42:03;23.60;99.90
65692;DHT22;52411;52.716;6.696;2023-05-21T12:44:29;23.70;99.90
65692;DHT22;52411;52.716;6.696;2023-05-21T12:46:55;23.70;99.90
65692;DHT22;52411;52.716;6.696;2023-05-21T12:49:34;23.80;99.90
65692;DHT22;52411;52.716;6.696;2023-05-21T12:52:01;23.80;99.90
65692;DHT22;52411;52.716;6.696;2023-05-21T12:54:28;23.90;99.90
65692;DHT22;52411;52.716;6.696;2023-05-21T12:56:54;23.90;99.90
65692;DHT22;52411;52.716;6.696;2023-05-21T12:59:21;23.90;99.90
65692;DHT22;52411;52.716;6.696;2023-05-21T13:01:46;24.10;99.90
65692;DHT22;52411;52.716;6.696;2023-05-21T13:04:12;24.30;99.90
65692;DHT22;52411;52.716;6.696;2023-05-21T13:06:41;24.20;99.90
65692;DHT22;52411;52.716;6.696;2023-05-21T13:09:06;24.40;99.90
65692;DHT22;52411;52.716;6.696;2023-05-21T13:11:32;24.50;99.90
65692;DHT22;52411;52.716;6.696;2023-05-21T13:13:57;24.70;99.90
65692;DHT22;52411;52.716;6.696;2023-05-21T13:16:23;24.80;99.80
65692;DHT22;52411;52.716;6.696;2023-05-21T13:18:48;24.70;99.90
65692;DHT22;52411;52.716;6.696;2023-05-21T13:21:14;24.70;99.60
65692;DHT22;52411;52.716;6.696;2023-05-21T13:23:39;24.60;99.60
65692;DHT22;52411;52.716;6.696;2023-05-21T13:26:05;24.80;99.90
65692;DHT22;52411;52.716;6.696;2023-05-21T13:28:30;25.10;99.90
65692;DHT22;52411;52.716;6.696;2023-05-21T13:30:56;24.90;99.90
65692;DHT22;52411;52.716;6.696;2023-05-21T13:33:21;25.00;99.10
65692;DHT22;52411;52.716;6.696;2023-05-21T13:35:47;25.10;99.70
65692;DHT22;52411;52.716;6.696;2023-05-21T13:38:15;25.20;99.70
65692;DHT22;52411;52.716;6.696;2023-05-21T13:40:41;25.20;98.70
65692;DHT22;52411;52.716;6.696;2023-05-21T13:43:06;25.20;98.60
65692;DHT22;52411;52.716;6.696;2023-05-21T13:45:32;25.50;98.20
65692;DHT22;52411;52.716;6.696;2023-05-21T13:47:58;25.60;99.00
65692;DHT22;52411;52.716;6.696;2023-05-21T13:50:23;25.40;98.00
65692;DHT22;52411;52.716;6.696;2023-05-21T13:52:49;25.60;98.60
65692;DHT22;52411;52.716;6.696;2023-05-21T13:55:14;25.60;99.10
65692;DHT22;52411;52.716;6.696;2023-05-21T13:57:40;25.70;98.10
65692;DHT22;52411;52.716;6.696;2023-05-21T14:00:06;25.90;98.70
65692;DHT22;52411;52.716;6.696;2023-05-21T14:02:33;26.10;98.50
65692;DHT22;52411;52.716;6.696;2023-05-21T14:04:59;26.00;97.10
65692;DHT22;52411;52.716;6.696;2023-05-21T14:07:24;26.30;98.30
65692;DHT22;52411;52.716;6.696;2023-05-21T14:09:50;26.40;98.00
65692;DHT22;52411;52.716;6.696;2023-05-21T14:12:16;26.20;96.10
65692;DHT22;52411;52.716;6.696;2023-05-21T14:14:42;26.30;96.40
65692;DHT22;52411;52.716;6.696;2023-05-21T14:17:08;26.20;96.20
65692;DHT22;52411;52.716;6.696;2023-05-21T14:19:33;26.20;96.40
65692;DHT22;52411;52.716;6.696;2023-05-21T14:21:58;25.90;96.80
65692;DHT22;52411;52.716;6.696;2023-05-21T14:24:24;25.80;97.10
65692;DHT22;52411;52.716;6.696;2023-05-21T14:26:49;25.60;96.40
65692;DHT22;52411;52.716;6.696;2023-05-21T14:29:15;25.90;96.00
65692;DHT22;52411;52.716;6.696;2023-05-21T14:31:41;26.20;96.50
65692;DHT22;52411;52.716;6.696;2023-05-21T14:34:06;26.80;96.40
65692;DHT22;52411;52.716;6.696;2023-05-21T14:36:33;27.30;95.80
65692;DHT22;52411;52.716;6.696;2023-05-21T14:38:58;27.50;94.60
65692;DHT22;52411;52.716;6.696;2023-05-21T14:41:24;27.50;94.30
65692;DHT22;52411;52.716;6.696;2023-05-21T14:43:52;27.60;94.20
65692;DHT22;52411;52.716;6.696;2023-05-21T14:46:18;27.80;93.00
65692;DHT22;52411;52.716;6.696;2023-05-21T14:48:44;28.00;93.10
65692;DHT22;52411;52.716;6.696;2023-05-21T14:51:11;28.20;93.20
65692;DHT22;52411;52.716;6.696;2023-05-21T14:53:37;28.40;92.90
65692;DHT22;52411;52.716;6.696;2023-05-21T14:56:03;28.70;92.00
65692;DHT22;52411;52.716;6.696;2023-05-21T14:58:29;28.80;92.40
65692;DHT22;52411;52.716;6.696;2023-05-21T15:00:54;28.80;92.80
65692;DHT22;52411;52.716;6.696;2023-05-21T15:03:20;28.70;92.50
65692;DHT22;52411;52.716;6.696;2023-05-21T15:05:45;28.30;92.00
65692;DHT22;52411;52.716;6.696;2023-05-21T15:08:11;28.20;91.40
65692;DHT22;52411;52.716;6.696;2023-05-21T15:10:36;28.10;92.40
65692;DHT22;52411;52.716;6.696;2023-05-21T15:13:02;28.20;92.30
65692;DHT22;52411;52.716;6.696;2023-05-21T15:15:27;28.40;92.90
65692;DHT22;52411;52.716;6.696;2023-05-21T15:17:53;28.50;91.80
65692;DHT22;52411;52.716;6.696;2023-05-21T15:20:18;28.70;92.10
65692;DHT22;52411;52.716;6.696;2023-05-21T15:22:45;29.00;92.20
65692;DHT22;52411;52.716;6.696;2023-05-21T15:25:10;29.30;92.20
65692;DHT22;52411;52.716;6.696;2023-05-21T15:27:36;29.30;92.00
65692;DHT22;52411;52.716;6.696;2023-05-21T15:30:01;29.40;90.70
65692;DHT22;52411;52.716;6.696;2023-05-21T15:32:27;29.40;90.80
65692;DHT22;52411;52.716;6.696;2023-05-21T15:34:52;29.80;91.70
65692;DHT22;52411;52.716;6.696;2023-05-21T15:37:18;30.00;91.10
65692;DHT22;52411;52.716;6.696;2023-05-21T15:39:45;30.20;91.00
65692;DHT22;52411;52.716;6.696;2023-05-21T15:42:10;30.10;90.70
65692;DHT22;52411;52.716;6.696;2023-05-21T15:44:39;30.00;90.30
65692;DHT22;52411;52.716;6.696;2023-05-21T15:47:05;30.00;91.00
65692;DHT22;52411;52.716;6.696;2023-05-21T15:49:31;30.40;90.70
65692;DHT22;52411;52.716;6.696;2023-05-21T15:51:56;30.80;90.70